sensor_id;sensor_type;location;lat;lon;timestamp;P1;durP1;ratioP1;P2;durP2;ratioP2
35969;SDS011;22448;51.298;6.430;2023-05-08T00:02:04;32.67;;;25.55;;
35969;SDS011;22448;51.298;6.430;2023-05-08T00:04:31;30.35;;;24.98;;
35969;SDS011;22448;51.298;6.430;2023-05-08T00:06:58;31.60;;;24.30;;
35969;SDS011;22448;51.298;6.430;2023-05-08T00:09:25;30.27;;;25.17;;
35969;SDS011;22448;51.298;6.430;2023-05-08T00:11:52;29.90;;;24.08;;
35969;SDS011;22448;51.298;6.430;2023-05-08T00:14:19;26.90;;;23.60;;
35969;SDS011;22448;51.298;6.430;2023-05-08T00:16:46;30.02;;;24.23;;
35969;SDS011;22448;51.298;6.430;2023-05-08T00:19:13;28.10;;;24.67;;
35969;SDS011;22448;51.298;6.430;2023-05-08T00:21:40;30.10;;;24.13;;
35969;SDS011;22448;51.298;6.430;2023-05-08T00:24:07;28.92;;;24.27;;
35969;SDS011;22448;51.298;6.430;2023-05-08T00:26:34;29.52;;;25.83;;
35969;SDS011;22448;51.298;6.430;2023-05-08T00:29:01;33.88;;;27.15;;
35969;SDS011;22448;51.298;6.430;2023-05-08T00:31:31;35.50;;;27.05;;
35969;SDS011;22448;51.298;6.430;2023-05-08T00:33:58;32.08;;;27.08;;
35969;SDS011;22448;51.298;6.430;2023-05-08T00:36:25;30.33;;;26.55;;
35969;SDS011;22448;51.298;6.430;2023-05-08T00:38:53;29.48;;;25.25;;
35969;SDS011;22448;51.298;6.430;2023-05-08T00:41:20;32.60;;;25.52;;
35969;SDS011;22448;51.298;6.430;2023-05-08T00:43:47;32.67;;;25.48;;
35969;SDS011;22448;51.298;6.430;2023-05-08T00:46:14;31.40;;;25.00;;
35969;SDS011;22448;51.298;6.430;2023-05-08T00:48:41;33.00;;;26.50;;
35969;SDS011;22448;51.298;6.430;2023-05-08T00:51:09;32.33;;;26.20;;
35969;SDS011;22448;51.298;6.430;2023-05-08T00:53:39;30.35;;;25.88;;
35969;SDS011;22448;51.298;6.430;2023-05-08T00:56:12;30.63;;;26.65;;
35969;SDS011;22448;51.298;6.430;2023-05-08T00:58:42;32.67;;;25.42;;
35969;SDS011;22448;51.298;6.430;2023-05-08T01:01:11;37.47;;;28.10;;
35969;SDS011;22448;51.298;6.430;2023-05-08T01:03:38;32.78;;;27.50;;
35969;SDS011;22448;51.298;6.430;2023-05-08T01:06:06;33.25;;;28.45;;
35969;SDS011;22448;51.298;6.430;2023-05-08T01:08:33;34.13;;;28.30;;
35969;SDS011;22448;51.298;6.430;2023-05-08T01:16:43;38.28;;;30.13;;
35969;SDS011;22448;51.298;6.430;2023-05-08T01:19:26;33.97;;;29.00;;
35969;SDS011;22448;51.298;6.430;2023-05-08T01:33:12;36.17;;;28.05;;
35969;SDS011;22448;51.298;6.430;2023-05-08T01:35:52;34.30;;;27.67;;
35969;SDS011;22448;51.298;6.430;2023-05-08T01:38:26;31.30;;;25.60;;
35969;SDS011;22448;51.298;6.430;2023-05-08T01:41:09;32.03;;;26.33;;
35969;SDS011;22448;51.298;6.430;2023-05-08T01:43:50;30.75;;;25.30;;
35969;SDS011;22448;51.298;6.430;2023-05-08T01:46:28;30.23;;;24.70;;
35969;SDS011;22448;51.298;6.430;2023-05-08T01:49:08;27.63;;;23.10;;
35969;SDS011;22448;51.298;6.430;2023-05-08T01:51:42;25.40;;;22.13;;
35969;SDS011;22448;51.298;6.430;2023-05-08T01:54:14;27.13;;;21.42;;
35969;SDS011;22448;51.298;6.430;2023-05-08T01:59:13;22.85;;;19.52;;
35969;SDS011;22448;51.298;6.430;2023-05-08T02:01:44;25.88;;;20.70;;
35969;SDS011;22448;51.298;6.430;2023-05-08T02:04:14;25.65;;;20.90;;
35969;SDS011;22448;51.298;6.430;2023-05-08T02:06:42;21.35;;;18.80;;
35969;SDS011;22448;51.298;6.430;2023-05-08T02:09:10;25.48;;;20.13;;
35969;SDS011;22448;51.298;6.430;2023-05-08T02:11:38;24.73;;;21.23;;
35969;SDS011;22448;51.298;6.430;2023-05-08T02:14:09;26.73;;;23.83;;
35969;SDS011;22448;51.298;6.430;2023-05-08T02:16:39;26.58;;;23.13;;
35969;SDS011;22448;51.298;6.430;2023-05-08T02:19:07;33.35;;;25.65;;
35969;SDS011;22448;51.298;6.430;2023-05-08T02:21:35;31.85;;;27.00;;
35969;SDS011;22448;51.298;6.430;2023-05-08T02:24:04;29.23;;;26.02;;
35969;SDS011;22448;51.298;6.430;2023-05-08T02:26:32;31.13;;;26.38;;
35969;SDS011;22448;51.298;6.430;2023-05-08T02:29:01;25.80;;;23.00;;
35969;SDS011;22448;51.298;6.430;2023-05-08T02:31:29;29.05;;;24.13;;
35969;SDS011;22448;51.298;6.430;2023-05-08T02:33:57;27.50;;;23.27;;
35969;SDS011;22448;51.298;6.430;2023-05-08T02:36:25;29.05;;;24.38;;
35969;SDS011;22448;51.298;6.430;2023-05-08T02:38:56;29.30;;;23.48;;
35969;SDS011;22448;51.298;6.430;2023-05-08T02:41:27;28.10;;;23.85;;
35969;SDS011;22448;51.298;6.430;2023-05-08T02:43:56;29.58;;;25.17;;
35969;SDS011;22448;51.298;6.430;2023-05-08T02:46:25;29.50;;;25.20;;
35969;SDS011;22448;51.298;6.430;2023-05-08T02:49:06;30.30;;;25.52;;
35969;SDS011;22448;51.298;6.430;2023-05-08T02:51:42;30.33;;;26.38;;
35969;SDS011;22448;51.298;6.430;2023-05-08T02:54:25;35.22;;;27.73;;
35969;SDS011;22448;51.298;6.430;2023-05-08T03:00:31;37.15;;;31.20;;
35969;SDS011;22448;51.298;6.430;2023-05-08T03:03:06;40.63;;;32.25;;
35969;SDS011;22448;51.298;6.430;2023-05-08T03:05:42;43.92;;;33.05;;
35969;SDS011;22448;51.298;6.430;2023-05-08T03:08:17;50.30;;;36.67;;
35969;SDS011;22448;51.298;6.430;2023-05-08T03:10:49;54.80;;;40.50;;
35969;SDS011;22448;51.298;6.430;2023-05-08T03:13:18;54.58;;;40.90;;
35969;SDS011;22448;51.298;6.430;2023-05-08T03:15:57;54.35;;;42.10;;
35969;SDS011;22448;51.298;6.430;2023-05-08T03:18:28;58.92;;;42.55;;
35969;SDS011;22448;51.298;6.430;2023-05-08T03:21:08;58.97;;;41.97;;
35969;SDS011;22448;51.298;6.430;2023-05-08T03:23:39;55.13;;;41.05;;
35969;SDS011;22448;51.298;6.430;2023-05-08T03:26:08;60.70;;;42.72;;
35969;SDS011;22448;51.298;6.430;2023-05-08T03:28:36;56.80;;;40.60;;
35969;SDS011;22448;51.298;6.430;2023-05-08T03:31:04;56.15;;;41.15;;
35969;SDS011;22448;51.298;6.430;2023-05-08T03:33:32;55.50;;;42.70;;
35969;SDS011;22448;51.298;6.430;2023-05-08T03:36:02;58.35;;;42.67;;
35969;SDS011;22448;51.298;6.430;2023-05-08T03:38:30;62.00;;;42.63;;
35969;SDS011;22448;51.298;6.430;2023-05-08T03:40:57;60.30;;;43.65;;
35969;SDS011;22448;51.298;6.430;2023-05-08T03:43:25;53.90;;;41.30;;
35969;SDS011;22448;51.298;6.430;2023-05-08T03:45:53;62.78;;;41.05;;
35969;SDS011;22448;51.298;6.430;2023-05-08T03:48:22;55.90;;;41.90;;
35969;SDS011;22448;51.298;6.430;2023-05-08T03:50:50;54.70;;;40.47;;
35969;SDS011;22448;51.298;6.430;2023-05-08T03:53:17;52.28;;;41.80;;
35969;SDS011;22448;51.298;6.430;2023-05-08T03:55:44;60.78;;;43.47;;
35969;SDS011;22448;51.298;6.430;2023-05-08T03:58:23;54.05;;;40.85;;
35969;SDS011;22448;51.298;6.430;2023-05-08T04:01:02;53.78;;;41.15;;
35969;SDS011;22448;51.298;6.430;2023-05-08T04:06:24;55.60;;;42.85;;
35969;SDS011;22448;51.298;6.430;2023-05-08T04:09:26;60.60;;;43.03;;
35969;SDS011;22448;51.298;6.430;2023-05-08T04:12:04;61.13;;;42.00;;
35969;SDS011;22448;51.298;6.430;2023-05-08T04:14:36;56.20;;;40.85;;
35969;SDS011;22448;51.298;6.430;2023-05-08T04:17:09;52.63;;;40.33;;
35969;SDS011;22448;51.298;6.430;2023-05-08T04:19:42;39.53;;;29.13;;
35969;SDS011;22448;51.298;6.430;2023-05-08T04:22:12;56.97;;;41.00;;
35969;SDS011;22448;51.298;6.430;2023-05-08T04:24:42;58.67;;;39.60;;
35969;SDS011;22448;51.298;6.430;2023-05-08T04:27:12;52.88;;;39.33;;
35969;SDS011;22448;51.298;6.430;2023-05-08T04:29:39;55.22;;;39.47;;
35969;SDS011;22448;51.298;6.430;2023-05-08T04:32:07;52.70;;;38.58;;
35969;SDS011;22448;51.298;6.430;2023-05-08T04:34:36;56.40;;;39.17;;
35969;SDS011;22448;51.298;6.430;2023-05-08T04:37:05;54.90;;;36.50;;
35969;SDS011;22448;51.298;6.430;2023-05-08T04:39:34;48.83;;;36.25;;
35969;SDS011;22448;51.298;6.430;2023-05-08T04:42:01;53.63;;;37.80;;
35969;SDS011;22448;51.298;6.430;2023-05-08T04:44:32;51.65;;;39.40;;
35969;SDS011;22448;51.298;6.430;2023-05-08T04:46:59;55.63;;;41.13;;
35969;SDS011;22448;51.298;6.430;2023-05-08T04:49:26;54.33;;;40.58;;
35969;SDS011;22448;51.298;6.430;2023-05-08T04:51:53;55.20;;;40.90;;
35969;SDS011;22448;51.298;6.430;2023-05-08T04:54:20;49.10;;;36.50;;
35969;SDS011;22448;51.298;6.430;2023-05-08T04:56:47;43.22;;;35.22;;
35969;SDS011;22448;51.298;6.430;2023-05-08T04:59:14;48.65;;;35.20;;
35969;SDS011;22448;51.298;6.430;2023-05-08T05:01:42;43.63;;;32.95;;
35969;SDS011;22448;51.298;6.430;2023-05-08T05:04:11;41.10;;;30.45;;
35969;SDS011;22448;51.298;6.430;2023-05-08T05:06:38;38.65;;;29.25;;
35969;SDS011;22448;51.298;6.430;2023-05-08T05:09:04;36.95;;;28.05;;
35969;SDS011;22448;51.298;6.430;2023-05-08T05:11:32;38.38;;;27.25;;
35969;SDS011;22448;51.298;6.430;2023-05-08T05:13:59;39.88;;;28.05;;
35969;SDS011;22448;51.298;6.430;2023-05-08T05:16:26;33.47;;;25.00;;
35969;SDS011;22448;51.298;6.430;2023-05-08T05:18:53;33.35;;;26.13;;
35969;SDS011;22448;51.298;6.430;2023-05-08T05:21:20;28.38;;;21.73;;
35969;SDS011;22448;51.298;6.430;2023-05-08T05:23:47;21.20;;;16.65;;
35969;SDS011;22448;51.298;6.430;2023-05-08T05:26:14;19.75;;;13.95;;
35969;SDS011;22448;51.298;6.430;2023-05-08T05:28:41;16.35;;;11.40;;
35969;SDS011;22448;51.298;6.430;2023-05-08T05:31:08;14.95;;;12.05;;
35969;SDS011;22448;51.298;6.430;2023-05-08T05:33:35;15.82;;;11.20;;
35969;SDS011;22448;51.298;6.430;2023-05-08T05:36:02;15.98;;;9.57;;
35969;SDS011;22448;51.298;6.430;2023-05-08T05:38:30;13.52;;;9.20;;
35969;SDS011;22448;51.298;6.430;2023-05-08T05:40:57;12.98;;;8.48;;
35969;SDS011;22448;51.298;6.430;2023-05-08T05:43:24;14.02;;;8.40;;
35969;SDS011;22448;51.298;6.430;2023-05-08T05:45:51;10.00;;;7.85;;
35969;SDS011;22448;51.298;6.430;2023-05-08T05:48:18;9.18;;;7.53;;
35969;SDS011;22448;51.298;6.430;2023-05-08T05:50:45;8.80;;;7.90;;
35969;SDS011;22448;51.298;6.430;2023-05-08T05:53:12;9.88;;;7.30;;
35969;SDS011;22448;51.298;6.430;2023-05-08T05:55:40;8.75;;;7.68;;
35969;SDS011;22448;51.298;6.430;2023-05-08T05:58:07;11.98;;;8.00;;
35969;SDS011;22448;51.298;6.430;2023-05-08T06:00:34;9.68;;;7.25;;
35969;SDS011;22448;51.298;6.430;2023-05-08T06:03:01;10.38;;;8.02;;
35969;SDS011;22448;51.298;6.430;2023-05-08T06:05:29;12.75;;;8.98;;
35969;SDS011;22448;51.298;6.430;2023-05-08T06:07:57;13.32;;;7.82;;
35969;SDS011;22448;51.298;6.430;2023-05-08T06:10:24;11.20;;;9.32;;
35969;SDS011;22448;51.298;6.430;2023-05-08T06:12:51;12.82;;;9.35;;
35969;SDS011;22448;51.298;6.430;2023-05-08T06:15:20;13.70;;;9.77;;
35969;SDS011;22448;51.298;6.430;2023-05-08T06:17:47;13.18;;;10.95;;
35969;SDS011;22448;51.298;6.430;2023-05-08T06:20:14;15.60;;;11.40;;
35969;SDS011;22448;51.298;6.430;2023-05-08T06:22:41;18.17;;;10.65;;
35969;SDS011;22448;51.298;6.430;2023-05-08T06:25:08;13.82;;;9.50;;
35969;SDS011;22448;51.298;6.430;2023-05-08T06:27:36;15.07;;;10.45;;
35969;SDS011;22448;51.298;6.430;2023-05-08T06:30:03;12.95;;;9.85;;
35969;SDS011;22448;51.298;6.430;2023-05-08T06:32:33;14.02;;;9.60;;
35969;SDS011;22448;51.298;6.430;2023-05-08T06:35:01;13.25;;;9.13;;
35969;SDS011;22448;51.298;6.430;2023-05-08T06:37:28;12.07;;;8.90;;
35969;SDS011;22448;51.298;6.430;2023-05-08T06:39:55;12.93;;;9.10;;
35969;SDS011;22448;51.298;6.430;2023-05-08T06:42:36;12.70;;;8.63;;
35969;SDS011;22448;51.298;6.430;2023-05-08T06:45:03;12.70;;;9.50;;
35969;SDS011;22448;51.298;6.430;2023-05-08T06:47:31;15.05;;;9.65;;
35969;SDS011;22448;51.298;6.430;2023-05-08T06:49:58;13.07;;;9.20;;
35969;SDS011;22448;51.298;6.430;2023-05-08T06:52:26;15.50;;;9.50;;
35969;SDS011;22448;51.298;6.430;2023-05-08T06:54:53;13.73;;;8.43;;
35969;SDS011;22448;51.298;6.430;2023-05-08T06:57:20;15.77;;;9.25;;
35969;SDS011;22448;51.298;6.430;2023-05-08T06:59:47;12.75;;;9.65;;
35969;SDS011;22448;51.298;6.430;2023-05-08T07:02:14;12.77;;;9.57;;
35969;SDS011;22448;51.298;6.430;2023-05-08T07:04:42;11.55;;;9.13;;
35969;SDS011;22448;51.298;6.430;2023-05-08T07:07:10;15.65;;;10.65;;
35969;SDS011;22448;51.298;6.430;2023-05-08T07:09:38;14.48;;;10.00;;
35969;SDS011;22448;51.298;6.430;2023-05-08T07:12:05;18.73;;;10.55;;
35969;SDS011;22448;51.298;6.430;2023-05-08T07:14:34;14.43;;;10.65;;
35969;SDS011;22448;51.298;6.430;2023-05-08T07:17:02;14.88;;;10.65;;
35969;SDS011;22448;51.298;6.430;2023-05-08T07:19:33;18.75;;;12.68;;
35969;SDS011;22448;51.298;6.430;2023-05-08T07:22:03;14.25;;;10.85;;
35969;SDS011;22448;51.298;6.430;2023-05-08T07:24:30;14.20;;;10.45;;
35969;SDS011;22448;51.298;6.430;2023-05-08T07:26:58;19.35;;;11.23;;
35969;SDS011;22448;51.298;6.430;2023-05-08T07:29:25;16.17;;;12.13;;
35969;SDS011;22448;51.298;6.430;2023-05-08T07:31:52;16.48;;;11.95;;
35969;SDS011;22448;51.298;6.430;2023-05-08T07:34:19;17.45;;;13.48;;
35969;SDS011;22448;51.298;6.430;2023-05-08T07:36:47;18.40;;;13.90;;
35969;SDS011;22448;51.298;6.430;2023-05-08T07:39:13;17.05;;;14.57;;
35969;SDS011;22448;51.298;6.430;2023-05-08T07:41:41;20.95;;;13.85;;
35969;SDS011;22448;51.298;6.430;2023-05-08T07:44:08;18.02;;;13.18;;
35969;SDS011;22448;51.298;6.430;2023-05-08T07:46:35;21.58;;;13.00;;
35969;SDS011;22448;51.298;6.430;2023-05-08T07:49:03;17.90;;;12.57;;
35969;SDS011;22448;51.298;6.430;2023-05-08T07:51:30;15.30;;;11.40;;
35969;SDS011;22448;51.298;6.430;2023-05-08T07:53:57;19.70;;;13.95;;
35969;SDS011;22448;51.298;6.430;2023-05-08T07:56:24;18.20;;;13.00;;
35969;SDS011;22448;51.298;6.430;2023-05-08T07:58:52;16.58;;;11.65;;
35969;SDS011;22448;51.298;6.430;2023-05-08T08:01:19;17.02;;;11.95;;
35969;SDS011;22448;51.298;6.430;2023-05-08T08:03:46;19.30;;;12.43;;
35969;SDS011;22448;51.298;6.430;2023-05-08T08:06:14;17.15;;;11.38;;
35969;SDS011;22448;51.298;6.430;2023-05-08T08:08:41;15.95;;;12.38;;
35969;SDS011;22448;51.298;6.430;2023-05-08T08:11:08;15.95;;;13.10;;
35969;SDS011;22448;51.298;6.430;2023-05-08T08:13:34;19.65;;;13.77;;
35969;SDS011;22448;51.298;6.430;2023-05-08T08:16:01;18.15;;;12.50;;
35969;SDS011;22448;51.298;6.430;2023-05-08T08:18:34;19.98;;;11.18;;
35969;SDS011;22448;51.298;6.430;2023-05-08T08:21:05;16.08;;;10.70;;
35969;SDS011;22448;51.298;6.430;2023-05-08T08:23:33;14.35;;;10.20;;
35969;SDS011;22448;51.298;6.430;2023-05-08T08:26:00;15.93;;;10.70;;
35969;SDS011;22448;51.298;6.430;2023-05-08T08:28:27;17.38;;;12.02;;
35969;SDS011;22448;51.298;6.430;2023-05-08T08:30:54;21.73;;;11.38;;
35969;SDS011;22448;51.298;6.430;2023-05-08T08:33:21;16.58;;;11.30;;
35969;SDS011;22448;51.298;6.430;2023-05-08T08:35:48;15.02;;;11.10;;
35969;SDS011;22448;51.298;6.430;2023-05-08T08:38:15;18.38;;;9.48;;
35969;SDS011;22448;51.298;6.430;2023-05-08T08:40:42;13.32;;;8.95;;
35969;SDS011;22448;51.298;6.430;2023-05-08T08:43:09;13.23;;;9.43;;
35969;SDS011;22448;51.298;6.430;2023-05-08T08:45:36;13.82;;;8.93;;
35969;SDS011;22448;51.298;6.430;2023-05-08T08:48:04;11.63;;;9.15;;
35969;SDS011;22448;51.298;6.430;2023-05-08T08:50:39;14.85;;;10.45;;
35969;SDS011;22448;51.298;6.430;2023-05-08T08:53:10;12.38;;;9.55;;
35969;SDS011;22448;51.298;6.430;2023-05-08T08:55:52;14.20;;;9.18;;
35969;SDS011;22448;51.298;6.430;2023-05-08T08:58:27;12.60;;;10.15;;
35969;SDS011;22448;51.298;6.430;2023-05-08T09:01:04;15.00;;;10.32;;
35969;SDS011;22448;51.298;6.430;2023-05-08T09:03:32;18.85;;;11.07;;
35969;SDS011;22448;51.298;6.430;2023-05-08T09:06:00;19.52;;;11.43;;
35969;SDS011;22448;51.298;6.430;2023-05-08T09:08:27;19.00;;;11.00;;
35969;SDS011;22448;51.298;6.430;2023-05-08T09:10:54;14.77;;;10.80;;
35969;SDS011;22448;51.298;6.430;2023-05-08T09:13:21;13.55;;;10.23;;
35969;SDS011;22448;51.298;6.430;2023-05-08T09:15:49;15.07;;;9.38;;
35969;SDS011;22448;51.298;6.430;2023-05-08T09:18:16;16.23;;;10.63;;
35969;SDS011;22448;51.298;6.430;2023-05-08T09:20:43;12.05;;;9.52;;
35969;SDS011;22448;51.298;6.430;2023-05-08T09:23:10;12.73;;;9.00;;
35969;SDS011;22448;51.298;6.430;2023-05-08T09:25:44;12.35;;;9.43;;
35969;SDS011;22448;51.298;6.430;2023-05-08T09:33:26;14.60;;;7.93;;
35969;SDS011;22448;51.298;6.430;2023-05-08T09:35:54;14.25;;;7.30;;
35969;SDS011;22448;51.298;6.430;2023-05-08T09:38:32;10.73;;;6.88;;
35969;SDS011;22448;51.298;6.430;2023-05-08T09:41:07;14.38;;;8.52;;
35969;SDS011;22448;51.298;6.430;2023-05-08T09:43:43;14.50;;;7.70;;
35969;SDS011;22448;51.298;6.430;2023-05-08T09:46:25;7.97;;;6.95;;
35969;SDS011;22448;51.298;6.430;2023-05-08T09:48:53;10.48;;;7.20;;
35969;SDS011;22448;51.298;6.430;2023-05-08T09:51:25;12.77;;;8.07;;
35969;SDS011;22448;51.298;6.430;2023-05-08T09:53:54;10.20;;;7.35;;
35969;SDS011;22448;51.298;6.430;2023-05-08T09:56:29;12.30;;;7.35;;
35969;SDS011;22448;51.298;6.430;2023-05-08T09:58:57;7.82;;;6.65;;
35969;SDS011;22448;51.298;6.430;2023-05-08T10:01:32;9.57;;;5.80;;
35969;SDS011;22448;51.298;6.430;2023-05-08T10:04:01;8.95;;;5.82;;
35969;SDS011;22448;51.298;6.430;2023-05-08T10:06:31;6.90;;;5.38;;
35969;SDS011;22448;51.298;6.430;2023-05-08T10:09:08;6.53;;;5.55;;
35969;SDS011;22448;51.298;6.430;2023-05-08T10:11:37;6.13;;;4.00;;
35969;SDS011;22448;51.298;6.430;2023-05-08T10:14:05;5.57;;;4.28;;
35969;SDS011;22448;51.298;6.430;2023-05-08T10:16:42;6.10;;;4.70;;
35969;SDS011;22448;51.298;6.430;2023-05-08T10:19:12;8.93;;;5.32;;
35969;SDS011;22448;51.298;6.430;2023-05-08T10:21:41;5.97;;;5.07;;
35969;SDS011;22448;51.298;6.430;2023-05-08T10:24:14;7.63;;;5.88;;
35969;SDS011;22448;51.298;6.430;2023-05-08T10:26:43;7.63;;;5.90;;
35969;SDS011;22448;51.298;6.430;2023-05-08T10:29:33;9.23;;;7.50;;
35969;SDS011;22448;51.298;6.430;2023-05-08T10:32:12;9.77;;;7.65;;
35969;SDS011;22448;51.298;6.430;2023-05-08T10:34:44;10.63;;;7.45;;
35969;SDS011;22448;51.298;6.430;2023-05-08T10:37:15;12.35;;;7.90;;
35969;SDS011;22448;51.298;6.430;2023-05-08T10:39:43;11.02;;;7.80;;
35969;SDS011;22448;51.298;6.430;2023-05-08T10:42:12;9.27;;;8.38;;
35969;SDS011;22448;51.298;6.430;2023-05-08T10:44:39;14.15;;;10.32;;
35969;SDS011;22448;51.298;6.430;2023-05-08T10:49:48;13.90;;;12.40;;
35969;SDS011;22448;51.298;6.430;2023-05-08T10:52:19;14.93;;;11.50;;
35969;SDS011;22448;51.298;6.430;2023-05-08T10:57:27;17.80;;;10.18;;
35969;SDS011;22448;51.298;6.430;2023-05-08T10:59:54;16.70;;;10.98;;
35969;SDS011;22448;51.298;6.430;2023-05-08T11:02:25;14.95;;;13.18;;
35969;SDS011;22448;51.298;6.430;2023-05-08T11:05:13;16.92;;;13.25;;
35969;SDS011;22448;51.298;6.430;2023-05-08T11:07:55;18.33;;;14.18;;
35969;SDS011;22448;51.298;6.430;2023-05-08T11:10:28;18.65;;;13.48;;
35969;SDS011;22448;51.298;6.430;2023-05-08T11:13:02;18.63;;;13.82;;
35969;SDS011;22448;51.298;6.430;2023-05-08T11:15:35;18.08;;;14.73;;
35969;SDS011;22448;51.298;6.430;2023-05-08T11:18:07;17.98;;;14.05;;
35969;SDS011;22448;51.298;6.430;2023-05-08T11:20:37;16.30;;;13.25;;
35969;SDS011;22448;51.298;6.430;2023-05-08T11:23:24;14.75;;;13.05;;
35969;SDS011;22448;51.298;6.430;2023-05-08T11:26:02;18.42;;;14.77;;
35969;SDS011;22448;51.298;6.430;2023-05-08T11:28:31;15.82;;;13.48;;
35969;SDS011;22448;51.298;6.430;2023-05-08T11:31:02;20.02;;;14.05;;
35969;SDS011;22448;51.298;6.430;2023-05-08T11:33:31;16.77;;;14.98;;
35969;SDS011;22448;51.298;6.430;2023-05-08T11:38:34;14.15;;;12.07;;
35969;SDS011;22448;51.298;6.430;2023-05-08T11:41:05;15.93;;;12.52;;
35969;SDS011;22448;51.298;6.430;2023-05-08T11:49:05;12.23;;;10.10;;
35969;SDS011;22448;51.298;6.430;2023-05-08T11:51:36;13.68;;;9.93;;
35969;SDS011;22448;51.298;6.430;2023-05-08T11:54:03;12.88;;;10.15;;
35969;SDS011;22448;51.298;6.430;2023-05-08T11:56:31;12.25;;;10.70;;
35969;SDS011;22448;51.298;6.430;2023-05-08T11:59:02;15.02;;;10.30;;
35969;SDS011;22448;51.298;6.430;2023-05-08T12:01:34;13.32;;;10.25;;
35969;SDS011;22448;51.298;6.430;2023-05-08T12:04:02;12.93;;;10.10;;
35969;SDS011;22448;51.298;6.430;2023-05-08T12:06:31;13.93;;;11.52;;
35969;SDS011;22448;51.298;6.430;2023-05-08T12:08:59;11.35;;;9.82;;
35969;SDS011;22448;51.298;6.430;2023-05-08T12:11:27;12.05;;;9.90;;
35969;SDS011;22448;51.298;6.430;2023-05-08T12:13:54;14.27;;;10.25;;
35969;SDS011;22448;51.298;6.430;2023-05-08T12:16:22;13.35;;;10.15;;
35969;SDS011;22448;51.298;6.430;2023-05-08T12:18:50;14.82;;;9.93;;
35969;SDS011;22448;51.298;6.430;2023-05-08T12:21:21;11.57;;;8.73;;
35969;SDS011;22448;51.298;6.430;2023-05-08T12:23:48;10.35;;;8.63;;
35969;SDS011;22448;51.298;6.430;2023-05-08T12:26:16;9.50;;;7.68;;
35969;SDS011;22448;51.298;6.430;2023-05-08T12:28:43;14.05;;;8.35;;
35969;SDS011;22448;51.298;6.430;2023-05-08T12:31:11;10.55;;;8.07;;
35969;SDS011;22448;51.298;6.430;2023-05-08T12:33:39;11.15;;;7.90;;
35969;SDS011;22448;51.298;6.430;2023-05-08T12:36:07;10.07;;;8.30;;
35969;SDS011;22448;51.298;6.430;2023-05-08T12:38:34;11.82;;;7.38;;
35969;SDS011;22448;51.298;6.430;2023-05-08T12:41:02;11.20;;;7.07;;
35969;SDS011;22448;51.298;6.430;2023-05-08T12:43:30;9.05;;;7.00;;
35969;SDS011;22448;51.298;6.430;2023-05-08T12:46:00;7.57;;;6.40;;
35969;SDS011;22448;51.298;6.430;2023-05-08T12:48:28;9.50;;;6.93;;
35969;SDS011;22448;51.298;6.430;2023-05-08T12:51:02;7.43;;;5.63;;
35969;SDS011;22448;51.298;6.430;2023-05-08T12:53:30;11.27;;;5.80;;
35969;SDS011;22448;51.298;6.430;2023-05-08T12:56:02;6.97;;;5.90;;
35969;SDS011;22448;51.298;6.430;2023-05-08T12:58:31;8.68;;;6.95;;
35969;SDS011;22448;51.298;6.430;2023-05-08T13:01:07;10.13;;;7.63;;
35969;SDS011;22448;51.298;6.430;2023-05-08T13:03:37;9.95;;;7.65;;
35969;SDS011;22448;51.298;6.430;2023-05-08T13:06:06;11.73;;;8.05;;
35969;SDS011;22448;51.298;6.430;2023-05-08T13:08:44;13.02;;;7.30;;
35969;SDS011;22448;51.298;6.430;2023-05-08T13:11:11;8.88;;;7.72;;
35969;SDS011;22448;51.298;6.430;2023-05-08T13:13:38;11.05;;;7.75;;
35969;SDS011;22448;51.298;6.430;2023-05-08T13:16:06;10.68;;;7.25;;
35969;SDS011;22448;51.298;6.430;2023-05-08T13:18:33;9.40;;;6.40;;
35969;SDS011;22448;51.298;6.430;2023-05-08T13:21:03;11.68;;;7.35;;
35969;SDS011;22448;51.298;6.430;2023-05-08T13:23:30;11.23;;;6.80;;
35969;SDS011;22448;51.298;6.430;2023-05-08T13:25:57;14.13;;;6.40;;
35969;SDS011;22448;51.298;6.430;2023-05-08T13:28:24;10.32;;;6.38;;
35969;SDS011;22448;51.298;6.430;2023-05-08T13:30:51;8.38;;;6.95;;
35969;SDS011;22448;51.298;6.430;2023-05-08T13:33:18;11.95;;;7.68;;
35969;SDS011;22448;51.298;6.430;2023-05-08T13:35:45;11.38;;;7.40;;
35969;SDS011;22448;51.298;6.430;2023-05-08T13:38:12;10.50;;;7.05;;
35969;SDS011;22448;51.298;6.430;2023-05-08T13:40:39;12.00;;;7.65;;
35969;SDS011;22448;51.298;6.430;2023-05-08T13:43:06;12.30;;;8.00;;
35969;SDS011;22448;51.298;6.430;2023-05-08T13:45:33;10.70;;;7.35;;
35969;SDS011;22448;51.298;6.430;2023-05-08T13:48:01;10.73;;;7.70;;
35969;SDS011;22448;51.298;6.430;2023-05-08T13:50:28;14.15;;;8.00;;
35969;SDS011;22448;51.298;6.430;2023-05-08T13:52:55;10.32;;;7.82;;
35969;SDS011;22448;51.298;6.430;2023-05-08T13:55:22;10.43;;;7.53;;
35969;SDS011;22448;51.298;6.430;2023-05-08T13:57:49;11.70;;;7.90;;
35969;SDS011;22448;51.298;6.430;2023-05-08T14:00:16;13.63;;;8.30;;
35969;SDS011;22448;51.298;6.430;2023-05-08T14:02:44;12.07;;;7.95;;
35969;SDS011;22448;51.298;6.430;2023-05-08T14:05:11;16.45;;;8.35;;
35969;SDS011;22448;51.298;6.430;2023-05-08T14:07:38;11.73;;;7.60;;
35969;SDS011;22448;51.298;6.430;2023-05-08T14:10:06;11.50;;;7.35;;
35969;SDS011;22448;51.298;6.430;2023-05-08T14:12:33;15.40;;;8.95;;
35969;SDS011;22448;51.298;6.430;2023-05-08T14:15:03;22.88;;;15.55;;
35969;SDS011;22448;51.298;6.430;2023-05-08T14:17:31;23.05;;;17.80;;
35969;SDS011;22448;51.298;6.430;2023-05-08T14:19:58;25.35;;;19.73;;
35969;SDS011;22448;51.298;6.430;2023-05-08T14:22:25;22.08;;;18.05;;
35969;SDS011;22448;51.298;6.430;2023-05-08T14:24:53;23.63;;;17.75;;
35969;SDS011;22448;51.298;6.430;2023-05-08T14:27:20;22.27;;;16.10;;
35969;SDS011;22448;51.298;6.430;2023-05-08T14:29:47;21.35;;;14.20;;
35969;SDS011;22448;51.298;6.430;2023-05-08T14:32:14;17.02;;;12.35;;
35969;SDS011;22448;51.298;6.430;2023-05-08T14:34:41;13.30;;;10.82;;
35969;SDS011;22448;51.298;6.430;2023-05-08T14:37:08;12.50;;;10.02;;
35969;SDS011;22448;51.298;6.430;2023-05-08T14:39:36;15.68;;;10.30;;
35969;SDS011;22448;51.298;6.430;2023-05-08T14:42:03;17.05;;;10.18;;
35969;SDS011;22448;51.298;6.430;2023-05-08T14:44:48;16.15;;;11.40;;
35969;SDS011;22448;51.298;6.430;2023-05-08T14:47:15;15.57;;;10.00;;
35969;SDS011;22448;51.298;6.430;2023-05-08T14:49:42;15.85;;;10.43;;
35969;SDS011;22448;51.298;6.430;2023-05-08T14:52:09;16.92;;;11.02;;
35969;SDS011;22448;51.298;6.430;2023-05-08T14:54:36;14.40;;;11.48;;
35969;SDS011;22448;51.298;6.430;2023-05-08T14:57:04;18.58;;;12.65;;
35969;SDS011;22448;51.298;6.430;2023-05-08T14:59:31;18.35;;;12.68;;
35969;SDS011;22448;51.298;6.430;2023-05-08T15:01:58;16.38;;;13.57;;
35969;SDS011;22448;51.298;6.430;2023-05-08T15:04:25;19.85;;;14.07;;
35969;SDS011;22448;51.298;6.430;2023-05-08T15:06:52;18.20;;;13.93;;
35969;SDS011;22448;51.298;6.430;2023-05-08T15:09:19;17.65;;;14.80;;
35969;SDS011;22448;51.298;6.430;2023-05-08T15:11:46;20.15;;;15.52;;
35969;SDS011;22448;51.298;6.430;2023-05-08T15:14:13;18.67;;;14.70;;
35969;SDS011;22448;51.298;6.430;2023-05-08T15:16:40;20.33;;;16.17;;
35969;SDS011;22448;51.298;6.430;2023-05-08T15:19:07;23.02;;;15.65;;
35969;SDS011;22448;51.298;6.430;2023-05-08T15:21:35;19.60;;;15.40;;
35969;SDS011;22448;51.298;6.430;2023-05-08T15:24:02;19.42;;;15.27;;